sensor_id;sensor_type;location;lat;lon;timestamp;P1;durP1;ratioP1;P2;durP2;ratioP2
351;SDS011;164;50.784;6.496;2022-07-18T00:00:03;3.65;;;2.40;;
351;SDS011;164;50.784;6.496;2022-07-18T00:02:32;4.25;;;2.50;;
351;SDS011;164;50.784;6.496;2022-07-18T00:05:00;3.85;;;2.50;;
351;SDS011;164;50.784;6.496;2022-07-18T00:07:28;3.75;;;2.20;;
351;SDS011;164;50.784;6.496;2022-07-18T00:09:55;4.15;;;2.42;;
351;SDS011;164;50.784;6.496;2022-07-18T00:12:22;2.55;;;2.03;;
351;SDS011;164;50.784;6.496;2022-07-18T00:14:50;3.33;;;2.58;;
351;SDS011;164;50.784;6.496;2022-07-18T00:17:17;4.90;;;2.40;;
351;SDS011;164;50.784;6.496;2022-07-18T00:19:44;2.40;;;2.10;;
351;SDS011;164;50.784;6.496;2022-07-18T00:22:11;4.45;;;2.40;;
351;SDS011;164;50.784;6.496;2022-07-18T00:24:40;4.00;;;2.25;;
351;SDS011;164;50.784;6.496;2022-07-18T00:27:07;7.60;;;2.30;;
351;SDS011;164;50.784;6.496;2022-07-18T00:29:34;2.63;;;2.20;;
351;SDS011;164;50.784;6.496;2022-07-18T00:32:02;3.10;;;2.60;;
351;SDS011;164;50.784;6.496;2022-07-18T00:34:29;3.58;;;2.70;;
351;SDS011;164;50.784;6.496;2022-07-18T00:36:56;2.47;;;1.95;;
351;SDS011;164;50.784;6.496;2022-07-18T00:39:23;3.80;;;2.33;;
351;SDS011;164;50.784;6.496;2022-07-18T00:41:52;5.18;;;2.90;;
351;SDS011;164;50.784;6.496;2022-07-18T00:44:19;4.63;;;2.50;;
351;SDS011;164;50.784;6.496;2022-07-18T00:46:48;2.90;;;2.10;;
351;SDS011;164;50.784;6.496;2022-07-18T00:49:15;3.40;;;3.03;;
351;SDS011;164;50.784;6.496;2022-07-18T00:51:43;3.35;;;2.30;;
351;SDS011;164;50.784;6.496;2022-07-18T00:54:10;6.38;;;2.80;;
351;SDS011;164;50.784;6.496;2022-07-18T00:56:37;5.80;;;2.63;;
351;SDS011;164;50.784;6.496;2022-07-18T00:59:06;3.55;;;2.50;;
351;SDS011;164;50.784;6.496;2022-07-18T01:01:33;2.70;;;2.15;;
351;SDS011;164;50.784;6.496;2022-07-18T01:04:09;3.25;;;2.13;;
351;SDS011;164;50.784;6.496;2022-07-18T01:06:37;3.58;;;2.35;;
351;SDS011;164;50.784;6.496;2022-07-18T01:09:04;3.88;;;2.20;;
351;SDS011;164;50.784;6.496;2022-07-18T01:11:32;2.83;;;2.63;;
351;SDS011;164;50.784;6.496;2022-07-18T01:13:59;4.18;;;2.50;;
351;SDS011;164;50.784;6.496;2022-07-18T01:16:28;3.65;;;2.67;;
351;SDS011;164;50.784;6.496;2022-07-18T01:18:56;3.70;;;2.25;;
351;SDS011;164;50.784;6.496;2022-07-18T01:21:24;4.45;;;2.55;;
351;SDS011;164;50.784;6.496;2022-07-18T01:23:51;4.68;;;2.75;;
351;SDS011;164;50.784;6.496;2022-07-18T01:26:19;3.50;;;2.55;;
351;SDS011;164;50.784;6.496;2022-07-18T01:28:46;3.55;;;2.88;;
351;SDS011;164;50.784;6.496;2022-07-18T01:31:13;2.92;;;2.35;;
351;SDS011;164;50.784;6.496;2022-07-18T01:33:41;4.20;;;2.30;;
351;SDS011;164;50.784;6.496;2022-07-18T01:36:08;4.65;;;2.20;;
351;SDS011;164;50.784;6.496;2022-07-18T01:38:36;4.05;;;2.78;;
351;SDS011;164;50.784;6.496;2022-07-18T01:41:04;4.03;;;2.22;;
351;SDS011;164;50.784;6.496;2022-07-18T01:43:32;2.65;;;2.40;;
351;SDS011;164;50.784;6.496;2022-07-18T01:46:03;2.72;;;2.33;;
351;SDS011;164;50.784;6.496;2022-07-18T01:48:30;3.35;;;2.38;;
351;SDS011;164;50.784;6.496;2022-07-18T01:50:57;3.08;;;2.35;;
351;SDS011;164;50.784;6.496;2022-07-18T01:53:24;3.08;;;2.47;;
351;SDS011;164;50.784;6.496;2022-07-18T01:55:54;4.40;;;2.50;;
351;SDS011;164;50.784;6.496;2022-07-18T01:58:21;3.47;;;2.45;;
351;SDS011;164;50.784;6.496;2022-07-18T02:00:48;4.72;;;2.65;;
351;SDS011;164;50.784;6.496;2022-07-18T02:03:15;4.55;;;2.78;;
351;SDS011;164;50.784;6.496;2022-07-18T02:05:42;5.15;;;2.70;;
351;SDS011;164;50.784;6.496;2022-07-18T02:08:09;8.55;;;2.72;;
351;SDS011;164;50.784;6.496;2022-07-18T02:10:36;5.43;;;3.88;;
351;SDS011;164;50.784;6.496;2022-07-18T02:13:04;3.58;;;2.88;;
351;SDS011;164;50.784;6.496;2022-07-18T02:15:31;4.95;;;2.40;;
351;SDS011;164;50.784;6.496;2022-07-18T02:17:59;3.55;;;2.88;;
351;SDS011;164;50.784;6.496;2022-07-18T02:20:25;3.25;;;1.83;;
351;SDS011;164;50.784;6.496;2022-07-18T02:22:52;2.35;;;2.22;;
351;SDS011;164;50.784;6.496;2022-07-18T02:25:19;2.63;;;2.05;;
351;SDS011;164;50.784;6.496;2022-07-18T02:27:47;3.47;;;2.20;;
351;SDS011;164;50.784;6.496;2022-07-18T02:30:15;4.55;;;2.20;;
351;SDS011;164;50.784;6.496;2022-07-18T02:32:42;3.55;;;2.15;;
351;SDS011;164;50.784;6.496;2022-07-18T02:35:09;3.63;;;2.30;;
351;SDS011;164;50.784;6.496;2022-07-18T02:37:36;3.22;;;2.15;;
351;SDS011;164;50.784;6.496;2022-07-18T02:40:06;2.97;;;2.35;;
351;SDS011;164;50.784;6.496;2022-07-18T02:42:34;5.47;;;3.08;;
351;SDS011;164;50.784;6.496;2022-07-18T02:45:01;3.13;;;1.85;;
351;SDS011;164;50.784;6.496;2022-07-18T02:47:30;4.85;;;2.80;;
351;SDS011;164;50.784;6.496;2022-07-18T02:49:57;3.90;;;2.72;;
351;SDS011;164;50.784;6.496;2022-07-18T02:52:24;5.22;;;2.30;;
351;SDS011;164;50.784;6.496;2022-07-18T02:54:51;2.40;;;2.30;;
351;SDS011;164;50.784;6.496;2022-07-18T02:57:18;3.28;;;2.78;;
351;SDS011;164;50.784;6.496;2022-07-18T02:59:45;4.00;;;2.40;;
351;SDS011;164;50.784;6.496;2022-07-18T03:02:12;3.45;;;2.25;;
351;SDS011;164;50.784;6.496;2022-07-18T03:04:40;2.78;;;2.20;;
351;SDS011;164;50.784;6.496;2022-07-18T03:07:09;4.43;;;2.72;;
351;SDS011;164;50.784;6.496;2022-07-18T03:09:36;1.77;;;1.70;;
351;SDS011;164;50.784;6.496;2022-07-18T03:12:03;2.38;;;1.98;;
351;SDS011;164;50.784;6.496;2022-07-18T03:14:31;2.17;;;1.70;;
351;SDS011;164;50.784;6.496;2022-07-18T03:16:58;3.22;;;2.85;;
351;SDS011;164;50.784;6.496;2022-07-18T03:19:25;2.72;;;2.22;;
351;SDS011;164;50.784;6.496;2022-07-18T03:21:54;3.85;;;2.25;;
351;SDS011;164;50.784;6.496;2022-07-18T03:24:21;2.25;;;2.10;;
351;SDS011;164;50.784;6.496;2022-07-18T03:26:48;3.30;;;2.15;;
351;SDS011;164;50.784;6.496;2022-07-18T03:29:15;2.10;;;1.95;;
351;SDS011;164;50.784;6.496;2022-07-18T03:31:42;2.20;;;2.00;;
351;SDS011;164;50.784;6.496;2022-07-18T03:34:09;6.47;;;2.20;;
351;SDS011;164;50.784;6.496;2022-07-18T03:36:36;2.42;;;2.22;;
351;SDS011;164;50.784;6.496;2022-07-18T03:39:05;2.08;;;1.95;;
351;SDS011;164;50.784;6.496;2022-07-18T03:41:33;2.42;;;2.30;;
351;SDS011;164;50.784;6.496;2022-07-18T03:44:00;3.22;;;2.70;;
351;SDS011;164;50.784;6.496;2022-07-18T03:46:28;2.90;;;2.47;;
351;SDS011;164;50.784;6.496;2022-07-18T03:48:55;4.68;;;3.08;;
351;SDS011;164;50.784;6.496;2022-07-18T03:51:23;2.65;;;2.10;;
351;SDS011;164;50.784;6.496;2022-07-18T03:53:51;2.67;;;2.20;;
351;SDS011;164;50.784;6.496;2022-07-18T03:56:20;3.25;;;1.88;;
351;SDS011;164;50.784;6.496;2022-07-18T03:58:47;2.65;;;2.33;;
351;SDS011;164;50.784;6.496;2022-07-18T04:01:14;2.53;;;2.33;;
351;SDS011;164;50.784;6.496;2022-07-18T04:03:41;4.35;;;1.70;;
351;SDS011;164;50.784;6.496;2022-07-18T04:06:08;2.40;;;1.73;;
351;SDS011;164;50.784;6.496;2022-07-18T04:08:35;1.85;;;1.80;;
351;SDS011;164;50.784;6.496;2022-07-18T04:11:02;2.28;;;1.83;;
351;SDS011;164;50.784;6.496;2022-07-18T04:13:30;2.60;;;1.98;;
351;SDS011;164;50.784;6.496;2022-07-18T04:15:57;2.40;;;1.77;;
351;SDS011;164;50.784;6.496;2022-07-18T04:18:25;3.35;;;1.85;;
351;SDS011;164;50.784;6.496;2022-07-18T04:20:52;1.75;;;1.63;;
351;SDS011;164;50.784;6.496;2022-07-18T04:23:19;3.28;;;1.70;;
351;SDS011;164;50.784;6.496;2022-07-18T04:25:46;1.83;;;1.70;;
351;SDS011;164;50.784;6.496;2022-07-18T04:28:13;2.80;;;2.50;;
351;SDS011;164;50.784;6.496;2022-07-18T04:30:42;3.97;;;2.20;;
351;SDS011;164;50.784;6.496;2022-07-18T04:33:10;1.60;;;1.55;;
351;SDS011;164;50.784;6.496;2022-07-18T04:35:37;2.45;;;1.88;;
351;SDS011;164;50.784;6.496;2022-07-18T04:38:05;2.65;;;2.05;;
351;SDS011;164;50.784;6.496;2022-07-18T04:40:34;3.17;;;2.13;;
351;SDS011;164;50.784;6.496;2022-07-18T04:43:02;2.70;;;1.85;;
351;SDS011;164;50.784;6.496;2022-07-18T04:45:29;2.28;;;2.10;;
351;SDS011;164;50.784;6.496;2022-07-18T04:47:57;3.85;;;2.38;;
351;SDS011;164;50.784;6.496;2022-07-18T04:50:24;3.50;;;2.03;;
351;SDS011;164;50.784;6.496;2022-07-18T04:52:55;6.60;;;1.92;;
351;SDS011;164;50.784;6.496;2022-07-18T04:55:23;2.05;;;1.70;;
351;SDS011;164;50.784;6.496;2022-07-18T04:57:51;2.45;;;1.40;;
351;SDS011;164;50.784;6.496;2022-07-18T05:00:19;2.13;;;1.98;;
351;SDS011;164;50.784;6.496;2022-07-18T05:02:49;4.70;;;2.03;;
351;SDS011;164;50.784;6.496;2022-07-18T05:05:19;2.42;;;1.70;;
351;SDS011;164;50.784;6.496;2022-07-18T05:07:47;2.50;;;1.55;;
351;SDS011;164;50.784;6.496;2022-07-18T05:10:16;3.05;;;1.80;;
351;SDS011;164;50.784;6.496;2022-07-18T05:12:46;1.58;;;1.48;;
351;SDS011;164;50.784;6.496;2022-07-18T05:15:16;3.70;;;1.67;;
351;SDS011;164;50.784;6.496;2022-07-18T05:17:44;2.35;;;1.20;;
351;SDS011;164;50.784;6.496;2022-07-18T05:20:13;4.07;;;1.80;;
351;SDS011;164;50.784;6.496;2022-07-18T05:22:42;3.25;;;2.00;;
351;SDS011;164;50.784;6.496;2022-07-18T05:25:10;2.72;;;1.73;;
351;SDS011;164;50.784;6.496;2022-07-18T05:27:38;1.85;;;1.70;;
351;SDS011;164;50.784;6.496;2022-07-18T05:30:07;3.35;;;1.63;;
351;SDS011;164;50.784;6.496;2022-07-18T05:32:35;2.35;;;1.60;;
351;SDS011;164;50.784;6.496;2022-07-18T05:35:03;1.38;;;1.30;;
351;SDS011;164;50.784;6.496;2022-07-18T05:37:31;2.67;;;1.45;;
351;SDS011;164;50.784;6.496;2022-07-18T05:40:01;3.10;;;1.45;;
351;SDS011;164;50.784;6.496;2022-07-18T05:42:29;1.83;;;1.60;;
351;SDS011;164;50.784;6.496;2022-07-18T05:44:56;2.30;;;1.60;;
351;SDS011;164;50.784;6.496;2022-07-18T05:47:23;1.80;;;1.50;;
351;SDS011;164;50.784;6.496;2022-07-18T05:49:50;3.67;;;2.22;;
351;SDS011;164;50.784;6.496;2022-07-18T05:52:17;2.38;;;1.38;;
351;SDS011;164;50.784;6.496;2022-07-18T05:54:45;2.28;;;1.45;;
351;SDS011;164;50.784;6.496;2022-07-18T05:57:13;4.75;;;2.15;;
351;SDS011;164;50.784;6.496;2022-07-18T05:59:40;2.08;;;1.55;;
351;SDS011;164;50.784;6.496;2022-07-18T06:02:07;1.25;;;1.15;;
351;SDS011;164;50.784;6.496;2022-07-18T06:04:34;2.13;;;1.23;;
351;SDS011;164;50.784;6.496;2022-07-18T06:07:02;2.25;;;1.40;;
351;SDS011;164;50.784;6.496;2022-07-18T06:09:29;2.47;;;1.40;;
351;SDS011;164;50.784;6.496;2022-07-18T06:11:57;2.25;;;1.58;;
351;SDS011;164;50.784;6.496;2022-07-18T06:14:27;2.17;;;1.58;;
351;SDS011;164;50.784;6.496;2022-07-18T06:16:54;2.58;;;1.50;;
351;SDS011;164;50.784;6.496;2022-07-18T06:19:22;1.70;;;1.63;;
351;SDS011;164;50.784;6.496;2022-07-18T06:21:49;3.33;;;1.40;;
351;SDS011;164;50.784;6.496;2022-07-18T06:24:16;2.30;;;1.35;;
351;SDS011;164;50.784;6.496;2022-07-18T06:26:45;1.90;;;1.60;;
351;SDS011;164;50.784;6.496;2022-07-18T06:29:12;2.08;;;1.27;;
351;SDS011;164;50.784;6.496;2022-07-18T06:31:49;1.55;;;1.15;;
351;SDS011;164;50.784;6.496;2022-07-18T06:34:16;1.88;;;1.17;;
351;SDS011;164;50.784;6.496;2022-07-18T06:36:43;1.60;;;1.33;;
351;SDS011;164;50.784;6.496;2022-07-18T06:39:10;2.90;;;1.48;;
351;SDS011;164;50.784;6.496;2022-07-18T06:41:38;2.25;;;1.30;;
351;SDS011;164;50.784;6.496;2022-07-18T06:44:05;1.95;;;1.40;;
351;SDS011;164;50.784;6.496;2022-07-18T06:46:32;1.88;;;1.45;;
351;SDS011;164;50.784;6.496;2022-07-18T06:49:03;1.92;;;1.42;;
351;SDS011;164;50.784;6.496;2022-07-18T06:51:31;3.85;;;1.30;;
351;SDS011;164;50.784;6.496;2022-07-18T06:53:58;2.15;;;1.30;;
351;SDS011;164;50.784;6.496;2022-07-18T06:56:25;1.92;;;1.40;;
351;SDS011;164;50.784;6.496;2022-07-18T06:58:53;2.88;;;1.40;;
351;SDS011;164;50.784;6.496;2022-07-18T07:01:20;1.63;;;1.13;;
351;SDS011;164;50.784;6.496;2022-07-18T07:03:48;1.07;;;0.97;;
351;SDS011;164;50.784;6.496;2022-07-18T07:06:17;3.70;;;1.67;;
351;SDS011;164;50.784;6.496;2022-07-18T07:08:44;1.40;;;1.30;;
351;SDS011;164;50.784;6.496;2022-07-18T07:11:11;1.20;;;0.90;;
351;SDS011;164;50.784;6.496;2022-07-18T07:13:39;3.73;;;1.33;;
351;SDS011;164;50.784;6.496;2022-07-18T07:16:06;1.40;;;0.90;;
351;SDS011;164;50.784;6.496;2022-07-18T07:18:33;1.87;;;1.30;;
351;SDS011;164;50.784;6.496;2022-07-18T07:21:00;2.77;;;1.40;;
351;SDS011;164;50.784;6.496;2022-07-18T07:23:29;1.50;;;1.20;;
351;SDS011;164;50.784;6.496;2022-07-18T07:25:56;1.43;;;1.20;;
351;SDS011;164;50.784;6.496;2022-07-18T07:28:23;8.53;;;1.60;;
351;SDS011;164;50.784;6.496;2022-07-18T07:30:50;4.40;;;1.60;;
351;SDS011;164;50.784;6.496;2022-07-18T07:33:18;3.93;;;2.30;;
351;SDS011;164;50.784;6.496;2022-07-18T07:35:45;5.33;;;1.37;;
351;SDS011;164;50.784;6.496;2022-07-18T07:38:12;5.93;;;1.43;;
351;SDS011;164;50.784;6.496;2022-07-18T07:40:44;5.73;;;1.10;;
351;SDS011;164;50.784;6.496;2022-07-18T07:43:14;2.67;;;1.60;;
351;SDS011;164;50.784;6.496;2022-07-18T07:45:43;3.60;;;1.47;;
351;SDS011;164;50.784;6.496;2022-07-18T07:48:14;2.33;;;1.07;;
351;SDS011;164;50.784;6.496;2022-07-18T07:50:41;4.57;;;1.20;;
351;SDS011;164;50.784;6.496;2022-07-18T07:53:08;2.60;;;1.27;;
351;SDS011;164;50.784;6.496;2022-07-18T07:55:36;4.50;;;1.20;;
351;SDS011;164;50.784;6.496;2022-07-18T07:58:05;3.57;;;1.23;;
351;SDS011;164;50.784;6.496;2022-07-18T08:00:32;2.43;;;1.33;;
351;SDS011;164;50.784;6.496;2022-07-18T08:03:00;1.63;;;1.07;;
351;SDS011;164;50.784;6.496;2022-07-18T08:05:30;1.60;;;1.00;;
351;SDS011;164;50.784;6.496;2022-07-18T08:07:59;3.70;;;1.17;;
351;SDS011;164;50.784;6.496;2022-07-18T08:10:27;1.87;;;1.40;;
351;SDS011;164;50.784;6.496;2022-07-18T08:12:55;2.63;;;1.10;;
351;SDS011;164;50.784;6.496;2022-07-18T08:15:23;3.80;;;1.27;;
351;SDS011;164;50.784;6.496;2022-07-18T08:17:51;5.60;;;1.10;;
351;SDS011;164;50.784;6.496;2022-07-18T08:20:18;3.47;;;1.20;;
351;SDS011;164;50.784;6.496;2022-07-18T08:22:52;2.57;;;1.30;;
351;SDS011;164;50.784;6.496;2022-07-18T08:25:23;1.77;;;0.83;;
351;SDS011;164;50.784;6.496;2022-07-18T08:27:50;2.97;;;1.23;;
351;SDS011;164;50.784;6.496;2022-07-18T08:30:18;5.90;;;2.83;;
351;SDS011;164;50.784;6.496;2022-07-18T08:32:47;2.07;;;1.13;;
351;SDS011;164;50.784;6.496;2022-07-18T08:35:14;1.43;;;0.73;;
351;SDS011;164;50.784;6.496;2022-07-18T08:37:41;1.70;;;1.13;;
351;SDS011;164;50.784;6.496;2022-07-18T08:40:08;2.97;;;1.70;;
351;SDS011;164;50.784;6.496;2022-07-18T08:42:37;1.70;;;1.50;;
351;SDS011;164;50.784;6.496;2022-07-18T08:45:05;2.10;;;1.13;;
351;SDS011;164;50.784;6.496;2022-07-18T08:47:33;5.73;;;1.60;;
351;SDS011;164;50.784;6.496;2022-07-18T08:50:02;1.67;;;1.03;;
351;SDS011;164;50.784;6.496;2022-07-18T08:52:30;2.70;;;0.90;;
351;SDS011;164;50.784;6.496;2022-07-18T08:55:00;3.13;;;1.20;;
351;SDS011;164;50.784;6.496;2022-07-18T08:57:28;1.40;;;1.17;;
351;SDS011;164;50.784;6.496;2022-07-18T08:59:55;2.67;;;1.10;;
351;SDS011;164;50.784;6.496;2022-07-18T09:02:23;1.13;;;0.93;;
351;SDS011;164;50.784;6.496;2022-07-18T09:04:51;1.00;;;0.70;;
351;SDS011;164;50.784;6.496;2022-07-18T09:07:27;2.13;;;1.00;;
351;SDS011;164;50.784;6.496;2022-07-18T09:09:56;1.77;;;1.00;;
351;SDS011;164;50.784;6.496;2022-07-18T09:12:24;1.30;;;0.90;;
351;SDS011;164;50.784;6.496;2022-07-18T09:14:53;6.03;;;1.90;;
351;SDS011;164;50.784;6.496;2022-07-18T09:17:21;1.80;;;1.10;;
351;SDS011;164;50.784;6.496;2022-07-18T09:19:59;2.30;;;0.90;;
351;SDS011;164;50.784;6.496;2022-07-18T09:22:31;5.53;;;1.13;;
351;SDS011;164;50.784;6.496;2022-07-18T09:25:01;1.20;;;1.20;;
351;SDS011;164;50.784;6.496;2022-07-18T09:27:31;1.50;;;0.90;;
351;SDS011;164;50.784;6.496;2022-07-18T09:32:53;3.00;;;1.20;;
351;SDS011;164;50.784;6.496;2022-07-18T09:35:31;3.13;;;0.63;;
351;SDS011;164;50.784;6.496;2022-07-18T09:38:02;3.47;;;1.20;;
351;SDS011;164;50.784;6.496;2022-07-18T09:40:31;1.70;;;1.20;;
351;SDS011;164;50.784;6.496;2022-07-18T09:42:59;1.30;;;0.90;;
351;SDS011;164;50.784;6.496;2022-07-18T09:45:30;1.97;;;1.07;;
351;SDS011;164;50.784;6.496;2022-07-18T09:47:58;1.20;;;1.10;;
351;SDS011;164;50.784;6.496;2022-07-18T09:50:31;2.03;;;1.00;;
351;SDS011;164;50.784;6.496;2022-07-18T09:53:03;1.87;;;1.00;;
351;SDS011;164;50.784;6.496;2022-07-18T09:55:35;4.30;;;0.83;;
351;SDS011;164;50.784;6.496;2022-07-18T09:58:07;1.60;;;1.30;;
351;SDS011;164;50.784;6.496;2022-07-18T10:00:35;3.40;;;1.17;;
351;SDS011;164;50.784;6.496;2022-07-18T10:03:04;3.00;;;1.10;;
351;SDS011;164;50.784;6.496;2022-07-18T10:05:33;3.30;;;1.57;;
351;SDS011;164;50.784;6.496;2022-07-18T10:08:05;2.43;;;1.17;;
351;SDS011;164;50.784;6.496;2022-07-18T10:10:34;1.10;;;0.90;;
351;SDS011;164;50.784;6.496;2022-07-18T10:13:03;1.80;;;1.10;;
351;SDS011;164;50.784;6.496;2022-07-18T10:15:31;1.57;;;1.03;;
351;SDS011;164;50.784;6.496;2022-07-18T10:18:00;2.00;;;1.30;;
351;SDS011;164;50.784;6.496;2022-07-18T10:20:30;2.47;;;0.90;;
351;SDS011;164;50.784;6.496;2022-07-18T10:23:01;2.80;;;1.20;;
351;SDS011;164;50.784;6.496;2022-07-18T10:25:35;4.73;;;1.37;;
351;SDS011;164;50.784;6.496;2022-07-18T10:28:04;1.50;;;1.00;;
351;SDS011;164;50.784;6.496;2022-07-18T10:30:34;2.60;;;1.30;;
351;SDS011;164;50.784;6.496;2022-07-18T10:33:03;1.70;;;1.27;;
351;SDS011;164;50.784;6.496;2022-07-18T10:36:01;1.83;;;0.90;;
351;SDS011;164;50.784;6.496;2022-07-18T10:38:31;3.83;;;1.20;;
351;SDS011;164;50.784;6.496;2022-07-18T10:41:05;2.03;;;1.30;;
351;SDS011;164;50.784;6.496;2022-07-18T10:43:39;2.17;;;1.10;;
351;SDS011;164;50.784;6.496;2022-07-18T10:46:07;4.00;;;1.30;;
351;SDS011;164;50.784;6.496;2022-07-18T10:48:51;1.23;;;0.90;;
351;SDS011;164;50.784;6.496;2022-07-18T10:51:23;1.23;;;1.20;;
351;SDS011;164;50.784;6.496;2022-07-18T10:53:59;1.07;;;0.93;;
351;SDS011;164;50.784;6.496;2022-07-18T10:59:34;1.20;;;0.83;;
351;SDS011;164;50.784;6.496;2022-07-18T11:02:06;1.50;;;1.10;;
351;SDS011;164;50.784;6.496;2022-07-18T11:04:40;2.93;;;1.80;;
351;SDS011;164;50.784;6.496;2022-07-18T11:07:11;1.40;;;1.10;;
351;SDS011;164;50.784;6.496;2022-07-18T11:09:41;1.30;;;1.10;;
351;SDS011;164;50.784;6.496;2022-07-18T11:12:19;2.00;;;1.20;;
351;SDS011;164;50.784;6.496;2022-07-18T11:14:58;1.97;;;1.13;;
351;SDS011;164;50.784;6.496;2022-07-18T11:20:37;1.90;;;1.17;;
351;SDS011;164;50.784;6.496;2022-07-18T11:23:13;1.20;;;1.03;;
351;SDS011;164;50.784;6.496;2022-07-18T11:25:43;1.90;;;1.20;;
351;SDS011;164;50.784;6.496;2022-07-18T11:28:11;2.27;;;1.50;;
351;SDS011;164;50.784;6.496;2022-07-18T11:30:38;1.30;;;1.27;;
351;SDS011;164;50.784;6.496;2022-07-18T11:33:06;1.73;;;1.23;;
351;SDS011;164;50.784;6.496;2022-07-18T11:35:47;2.80;;;1.10;;
351;SDS011;164;50.784;6.496;2022-07-18T11:38:14;2.93;;;2.00;;
351;SDS011;164;50.784;6.496;2022-07-18T11:40:52;3.60;;;1.47;;
351;SDS011;164;50.784;6.496;2022-07-18T11:43:19;2.60;;;1.70;;
351;SDS011;164;50.784;6.496;2022-07-18T11:45:47;1.80;;;1.50;;
351;SDS011;164;50.784;6.496;2022-07-18T11:48:20;3.67;;;1.40;;
351;SDS011;164;50.784;6.496;2022-07-18T11:50:47;8.90;;;1.50;;
351;SDS011;164;50.784;6.496;2022-07-18T11:53:14;1.83;;;1.17;;
351;SDS011;164;50.784;6.496;2022-07-18T11:55:42;3.30;;;1.20;;
351;SDS011;164;50.784;6.496;2022-07-18T11:58:12;4.60;;;1.40;;
351;SDS011;164;50.784;6.496;2022-07-18T12:00:40;6.70;;;1.07;;
351;SDS011;164;50.784;6.496;2022-07-18T12:03:08;2.10;;;1.30;;
351;SDS011;164;50.784;6.496;2022-07-18T12:05:38;3.20;;;1.73;;
351;SDS011;164;50.784;6.496;2022-07-18T12:11:04;3.90;;;1.10;;
351;SDS011;164;50.784;6.496;2022-07-18T12:13:51;2.57;;;1.20;;
351;SDS011;164;50.784;6.496;2022-07-18T12:16:27;1.70;;;1.20;;
351;SDS011;164;50.784;6.496;2022-07-18T12:18:59;1.83;;;1.67;;
351;SDS011;164;50.784;6.496;2022-07-18T12:21:39;2.03;;;1.70;;
351;SDS011;164;50.784;6.496;2022-07-18T12:27:16;2.10;;;1.23;;
351;SDS011;164;50.784;6.496;2022-07-18T12:29:59;2.73;;;1.60;;
351;SDS011;164;50.784;6.496;2022-07-18T12:32:44;4.27;;;2.47;;
351;SDS011;164;50.784;6.496;2022-07-18T12:35:13;2.63;;;1.40;;
351;SDS011;164;50.784;6.496;2022-07-18T12:37:50;2.73;;;1.50;;
351;SDS011;164;50.784;6.496;2022-07-18T12:40:22;4.60;;;1.20;;
351;SDS011;164;50.784;6.496;2022-07-18T12:42:56;2.17;;;1.63;;
351;SDS011;164;50.784;6.496;2022-07-18T12:45:30;4.03;;;2.00;;
351;SDS011;164;50.784;6.496;2022-07-18T12:47:57;4.80;;;1.87;;
351;SDS011;164;50.784;6.496;2022-07-18T12:50:24;2.07;;;1.67;;
351;SDS011;164;50.784;6.496;2022-07-18T12:52:51;1.57;;;1.47;;
351;SDS011;164;50.784;6.496;2022-07-18T12:55:18;2.20;;;1.50;;
351;SDS011;164;50.784;6.496;2022-07-18T12:57:45;2.90;;;1.60;;
351;SDS011;164;50.784;6.496;2022-07-18T13:00:12;4.17;;;1.80;;
351;SDS011;164;50.784;6.496;2022-07-18T13:02:41;7.17;;;2.00;;
351;SDS011;164;50.784;6.496;2022-07-18T13:05:09;3.43;;;1.63;;
351;SDS011;164;50.784;6.496;2022-07-18T13:07:36;4.70;;;2.47;;
351;SDS011;164;50.784;6.496;2022-07-18T13:10:04;6.23;;;2.27;;
351;SDS011;164;50.784;6.496;2022-07-18T13:12:31;3.80;;;1.97;;
351;SDS011;164;50.784;6.496;2022-07-18T13:15:00;5.87;;;1.73;;
351;SDS011;164;50.784;6.496;2022-07-18T13:17:27;3.67;;;1.23;;
351;SDS011;164;50.784;6.496;2022-07-18T13:19:55;1.03;;;1.03;;
351;SDS011;164;50.784;6.496;2022-07-18T13:22:22;2.80;;;1.30;;
351;SDS011;164;50.784;6.496;2022-07-18T13:24:49;1.93;;;1.20;;
351;SDS011;164;50.784;6.496;2022-07-18T13:27:16;1.80;;;1.07;;
351;SDS011;164;50.784;6.496;2022-07-18T13:29:45;3.23;;;1.60;;
351;SDS011;164;50.784;6.496;2022-07-18T13:32:12;4.33;;;1.47;;
351;SDS011;164;50.784;6.496;2022-07-18T13:34:39;5.43;;;1.50;;
351;SDS011;164;50.784;6.496;2022-07-18T13:37:08;4.13;;;1.43;;
351;SDS011;164;50.784;6.496;2022-07-18T13:39:35;2.87;;;1.70;;
351;SDS011;164;50.784;6.496;2022-07-18T13:42:02;4.10;;;1.67;;
351;SDS011;164;50.784;6.496;2022-07-18T13:44:30;2.63;;;1.70;;
351;SDS011;164;50.784;6.496;2022-07-18T13:46:57;5.03;;;1.40;;
351;SDS011;164;50.784;6.496;2022-07-18T13:49:24;5.97;;;1.40;;
351;SDS011;164;50.784;6.496;2022-07-18T13:51:51;2.00;;;1.20;;
351;SDS011;164;50.784;6.496;2022-07-18T13:54:20;2.60;;;1.40;;
351;SDS011;164;50.784;6.496;2022-07-18T13:56:47;2.70;;;1.47;;
351;SDS011;164;50.784;6.496;2022-07-18T13:59:14;2.13;;;1.00;;
351;SDS011;164;50.784;6.496;2022-07-18T14:01:42;1.53;;;1.03;;
351;SDS011;164;50.784;6.496;2022-07-18T14:04:09;3.13;;;1.70;;
351;SDS011;164;50.784;6.496;2022-07-18T14:06:36;6.73;;;1.10;;
351;SDS011;164;50.784;6.496;2022-07-18T14:09:03;3.13;;;1.20;;
351;SDS011;164;50.784;6.496;2022-07-18T14:11:33;4.97;;;1.60;;
351;SDS011;164;50.784;6.496;2022-07-18T14:14:00;2.07;;;1.23;;
351;SDS011;164;50.784;6.496;2022-07-18T14:16:28;7.67;;;1.50;;
351;SDS011;164;50.784;6.496;2022-07-18T14:18:55;2.93;;;1.03;;
351;SDS011;164;50.784;6.496;2022-07-18T14:21:22;2.90;;;1.33;;
351;SDS011;164;50.784;6.496;2022-07-18T14:23:50;1.63;;;1.10;;
351;SDS011;164;50.784;6.496;2022-07-18T14:26:17;3.63;;;1.10;;
351;SDS011;164;50.784;6.496;2022-07-18T14:28:46;2.87;;;1.40;;
351;SDS011;164;50.784;6.496;2022-07-18T14:31:13;3.37;;;2.13;;
351;SDS011;164;50.784;6.496;2022-07-18T14:33:40;3.93;;;1.17;;
351;SDS011;164;50.784;6.496;2022-07-18T14:36:07;3.27;;;1.10;;
351;SDS011;164;50.784;6.496;2022-07-18T14:38:34;4.93;;;1.33;;
351;SDS011;164;50.784;6.496;2022-07-18T14:41:01;4.07;;;1.17;;
351;SDS011;164;50.784;6.496;2022-07-18T14:43:29;1.83;;;1.07;;
351;SDS011;164;50.784;6.496;2022-07-18T14:45:57;3.37;;;1.33;;
351;SDS011;164;50.784;6.496;2022-07-18T14:48:24;1.87;;;0.80;;
351;SDS011;164;50.784;6.496;2022-07-18T14:50:51;2.00;;;1.03;;
351;SDS011;164;50.784;6.496;2022-07-18T14:53:18;1.97;;;1.40;;
351;SDS011;164;50.784;6.496;2022-07-18T14:55:45;1.83;;;1.30;;
351;SDS011;164;50.784;6.496;2022-07-18T14:58:12;2.80;;;1.20;;
351;SDS011;164;50.784;6.496;2022-07-18T15:00:39;3.27;;;1.00;;
351;SDS011;164;50.784;6.496;2022-07-18T15:03:08;2.90;;;1.17;;
351;SDS011;164;50.784;6.496;2022-07-18T15:05:35;2.97;;;0.90;;
351;SDS011;164;50.784;6.496;2022-07-18T15:08:02;3.23;;;1.40;;
351;SDS011;164;50.784;6.496;2022-07-18T15:10:30;3.13;;;0.90;;
351;SDS011;164;50.784;6.496;2022-07-18T15:12:57;4.23;;;1.20;;
351;SDS011;164;50.784;6.496;2022-07-18T15:15:24;1.10;;;0.87;;
351;SDS011;164;50.784;6.496;2022-07-18T15:17:51;1.40;;;1.10;;
351;SDS011;164;50.784;6.496;2022-07-18T15:20:19;3.63;;;1.37;;
351;SDS011;164;50.784;6.496;2022-07-18T15:22:46;1.70;;;1.20;;
351;SDS011;164;50.784;6.496;2022-07-18T15:25:13;5.50;;;1.10;;
351;SDS011;164;50.784;6.496;2022-07-18T15:27:40;4.13;;;1.13;;
351;SDS011;164;50.784;6.496;2022-07-18T15:30:08;1.47;;;1.00;;
351;SDS011;164;50.784;6.496;2022-07-18T15:32:35;1.90;;;1.10;;
351;SDS011;164;50.784;6.496;2022-07-18T15:35:03;7.40;;;1.23;;
351;SDS011;164;50.784;6.496;2022-07-18T15:37:32;1.10;;;0.80;;
351;SDS011;164;50.784;6.496;2022-07-18T15:39:59;3.63;;;1.40;;
351;SDS011;164;50.784;6.496;2022-07-18T15:42:27;1.77;;;0.90;;
351;SDS011;164;50.784;6.496;2022-07-18T15:44:54;11.43;;;1.90;;
351;SDS011;164;50.784;6.496;2022-07-18T15:47:21;3.97;;;1.47;;
351;SDS011;164;50.784;6.496;2022-07-18T15:49:48;3.40;;;1.00;;
351;SDS011;164;50.784;6.496;2022-07-18T15:52:15;1.40;;;0.90;;
351;SDS011;164;50.784;6.496;2022-07-18T15:54:43;1.60;;;0.93;;
351;SDS011;164;50.784;6.496;2022-07-18T15:57:10;3.40;;;1.30;;
351;SDS011;164;50.784;6.496;2022-07-18T15:59:37;8.10;;;2.10;;
351;SDS011;164;50.784;6.496;2022-07-18T16:02:04;1.60;;;1.53;;
351;SDS011;164;50.784;6.496;2022-07-18T16:04:31;2.20;;;1.20;;
351;SDS011;164;50.784;6.496;2022-07-18T16:06:58;2.80;;;1.50;;